sensor_id;sensor_type;location;lat;lon;timestamp;pressure;altitude;pressure_sealevel;temperature;humidity
70133;BME280;57495;49.922;7.966;2023-01-30T00:01:29;100638.81;;;-0.23;95.69
70133;BME280;57495;49.922;7.966;2023-01-30T00:03:31;100638.69;;;-0.20;95.97
70133;BME280;57495;49.922;7.966;2023-01-30T00:05:33;100624.53;;;-0.15;96.08
70133;BME280;57495;49.922;7.966;2023-01-30T00:07:34;100628.97;;;-0.17;96.13
70133;BME280;57495;49.922;7.966;2023-01-30T00:09:37;100617.44;;;-0.13;95.81
70133;BME280;57495;49.922;7.966;2023-01-30T00:11:40;100621.78;;;-0.12;95.93
70133;BME280;57495;49.922;7.966;2023-01-30T00:13:42;100627.94;;;-0.13;96.03
70133;BME280;57495;49.922;7.966;2023-01-30T00:15:44;100633.34;;;-0.16;96.37
70133;BME280;57495;49.922;7.966;2023-01-30T00:17:45;100616.69;;;-0.17;96.64
70133;BME280;57495;49.922;7.966;2023-01-30T00:19:46;100622.81;;;-0.16;96.73
70133;BME280;57495;49.922;7.966;2023-01-30T00:21:48;100609.59;;;-0.15;96.63
70133;BME280;57495;49.922;7.966;2023-01-30T00:23:49;100600.03;;;-0.16;97.08
70133;BME280;57495;49.922;7.966;2023-01-30T00:25:52;100591.94;;;-0.11;97.45
70133;BME280;57495;49.922;7.966;2023-01-30T00:27:54;100593.72;;;-0.12;97.84
70133;BME280;57495;49.922;7.966;2023-01-30T00:29:55;100579.69;;;-0.11;98.15
70133;BME280;57495;49.922;7.966;2023-01-30T00:31:57;100543.84;;;-0.13;97.94
70133;BME280;57495;49.922;7.966;2023-01-30T00:33:58;100531.84;;;-0.21;98.14
70133;BME280;57495;49.922;7.966;2023-01-30T00:36:00;100542.69;;;-0.28;98.28
70133;BME280;57495;49.922;7.966;2023-01-30T00:38:02;100549.59;;;-0.26;98.27
70133;BME280;57495;49.922;7.966;2023-01-30T00:40:04;100557.72;;;-0.32;98.67
70133;BME280;57495;49.922;7.966;2023-01-30T00:42:08;100556.91;;;-0.34;99.26
70133;BME280;57495;49.922;7.966;2023-01-30T00:44:27;100561.22;;;-0.31;99.98
70133;BME280;57495;49.922;7.966;2023-01-30T00:46:46;100562.81;;;-0.27;99.96
70133;BME280;57495;49.922;7.966;2023-01-30T00:49:06;100557.28;;;-0.21;99.51
70133;BME280;57495;49.922;7.966;2023-01-30T00:51:07;100545.09;;;-0.22;99.85
70133;BME280;57495;49.922;7.966;2023-01-30T00:53:09;100542.31;;;-0.19;99.92
70133;BME280;57495;49.922;7.966;2023-01-30T00:55:11;100542.19;;;-0.16;99.45
70133;BME280;57495;49.922;7.966;2023-01-30T00:57:13;100550.56;;;-0.06;98.95
70133;BME280;57495;49.922;7.966;2023-01-30T00:59:15;100548.97;;;-0.10;99.39
70133;BME280;57495;49.922;7.966;2023-01-30T01:01:16;100548.06;;;-0.09;99.21
70133;BME280;57495;49.922;7.966;2023-01-30T01:03:18;100553.19;;;-0.06;99.55
70133;BME280;57495;49.922;7.966;2023-01-30T01:05:20;100548.88;;;-0.07;99.44
70133;BME280;57495;49.922;7.966;2023-01-30T01:07:21;100554.84;;;-0.04;99.21
70133;BME280;57495;49.922;7.966;2023-01-30T01:09:23;100527.94;;;-0.10;99.72
70133;BME280;57495;49.922;7.966;2023-01-30T01:11:24;100532.22;;;-0.08;100.00
70133;BME280;57495;49.922;7.966;2023-01-30T01:13:27;100542.88;;;-0.11;100.00
70133;BME280;57495;49.922;7.966;2023-01-30T01:15:29;100553.44;;;-0.12;100.00
70133;BME280;57495;49.922;7.966;2023-01-30T01:17:30;100540.19;;;-0.09;100.00
70133;BME280;57495;49.922;7.966;2023-01-30T01:19:32;100529.69;;;-0.09;100.00
70133;BME280;57495;49.922;7.966;2023-01-30T01:21:33;100521.84;;;-0.11;100.00
70133;BME280;57495;49.922;7.966;2023-01-30T01:23:34;100508.78;;;-0.12;100.00
70133;BME280;57495;49.922;7.966;2023-01-30T01:25:36;100520.91;;;-0.10;100.00
70133;BME280;57495;49.922;7.966;2023-01-30T01:27:37;100513.03;;;-0.10;100.00
70133;BME280;57495;49.922;7.966;2023-01-30T01:29:40;100519.41;;;-0.15;100.00
70133;BME280;57495;49.922;7.966;2023-01-30T01:31:42;100522.69;;;-0.10;100.00
70133;BME280;57495;49.922;7.966;2023-01-30T01:33:44;100513.81;;;-0.08;100.00
70133;BME280;57495;49.922;7.966;2023-01-30T01:35:45;100509.34;;;-0.06;100.00
70133;BME280;57495;49.922;7.966;2023-01-30T01:37:47;100508.50;;;-0.06;100.00
70133;BME280;57495;49.922;7.966;2023-01-30T01:39:48;100514.69;;;-0.07;100.00
70133;BME280;57495;49.922;7.966;2023-01-30T01:42:09;100519.03;;;-0.06;100.00
70133;BME280;57495;49.922;7.966;2023-01-30T01:44:11;100522.59;;;-0.07;100.00
70133;BME280;57495;49.922;7.966;2023-01-30T01:46:19;100508.38;;;-0.03;100.00
70133;BME280;57495;49.922;7.966;2023-01-30T01:48:26;100501.41;;;-0.04;100.00
70133;BME280;57495;49.922;7.966;2023-01-30T01:50:37;100493.78;;;-0.10;100.00
70133;BME280;57495;49.922;7.966;2023-01-30T01:52:41;100496.31;;;-0.07;100.00
70133;BME280;57495;49.922;7.966;2023-01-30T01:54:45;100506.09;;;-0.11;100.00
70133;BME280;57495;49.922;7.966;2023-01-30T01:56:49;100498.00;;;-0.06;100.00
70133;BME280;57495;49.922;7.966;2023-01-30T01:58:52;100490.06;;;-0.05;100.00
70133;BME280;57495;49.922;7.966;2023-01-30T02:00:57;100488.53;;;-0.10;100.00
70133;BME280;57495;49.922;7.966;2023-01-30T02:03:02;100496.41;;;-0.10;100.00
70133;BME280;57495;49.922;7.966;2023-01-30T02:05:05;100506.72;;;-0.06;100.00
70133;BME280;57495;49.922;7.966;2023-01-30T02:07:10;100494.56;;;-0.08;100.00
70133;BME280;57495;49.922;7.966;2023-01-30T02:09:11;100489.31;;;-0.08;100.00
70133;BME280;57495;49.922;7.966;2023-01-30T02:11:16;100468.28;;;-0.08;100.00
70133;BME280;57495;49.922;7.966;2023-01-30T02:13:21;100459.34;;;-0.04;100.00
70133;BME280;57495;49.922;7.966;2023-01-30T02:15:23;100458.31;;;0.00;100.00
70133;BME280;57495;49.922;7.966;2023-01-30T02:17:24;100462.78;;;-0.02;100.00
70133;BME280;57495;49.922;7.966;2023-01-30T02:19:33;100456.41;;;0.04;100.00
70133;BME280;57495;49.922;7.966;2023-01-30T02:22:12;100456.66;;;-0.03;100.00
70133;BME280;57495;49.922;7.966;2023-01-30T02:24:35;100460.81;;;0.03;100.00
70133;BME280;57495;49.922;7.966;2023-01-30T02:29:41;100465.94;;;0.06;100.00
70133;BME280;57495;49.922;7.966;2023-01-30T02:31:53;100462.25;;;0.10;100.00
70133;BME280;57495;49.922;7.966;2023-01-30T02:34:07;100463.03;;;0.12;100.00
70133;BME280;57495;49.922;7.966;2023-01-30T02:36:14;100465.56;;;0.15;100.00
70133;BME280;57495;49.922;7.966;2023-01-30T02:38:27;100467.56;;;0.09;100.00
70133;BME280;57495;49.922;7.966;2023-01-30T02:40:39;100456.09;;;0.11;100.00
70133;BME280;57495;49.922;7.966;2023-01-30T02:42:46;100450.50;;;0.19;100.00
70133;BME280;57495;49.922;7.966;2023-01-30T02:44:58;100446.31;;;0.15;100.00
70133;BME280;57495;49.922;7.966;2023-01-30T02:47:07;100432.28;;;0.14;100.00
70133;BME280;57495;49.922;7.966;2023-01-30T02:49:13;100437.41;;;0.17;100.00
70133;BME280;57495;49.922;7.966;2023-01-30T02:51:20;100439.25;;;0.15;100.00
70133;BME280;57495;49.922;7.966;2023-01-30T02:53:23;100449.78;;;0.15;100.00
70133;BME280;57495;49.922;7.966;2023-01-30T02:55:26;100444.38;;;0.18;100.00
70133;BME280;57495;49.922;7.966;2023-01-30T02:57:28;100441.84;;;0.17;100.00
70133;BME280;57495;49.922;7.966;2023-01-30T02:59:33;100425.06;;;0.19;100.00
70133;BME280;57495;49.922;7.966;2023-01-30T03:02:02;100433.00;;;0.18;100.00
70133;BME280;57495;49.922;7.966;2023-01-30T03:04:21;100427.75;;;0.18;100.00
70133;BME280;57495;49.922;7.966;2023-01-30T03:06:36;100428.47;;;0.22;100.00
70133;BME280;57495;49.922;7.966;2023-01-30T03:08:50;100436.28;;;0.23;100.00
70133;BME280;57495;49.922;7.966;2023-01-30T03:10:59;100434.50;;;0.24;100.00
70133;BME280;57495;49.922;7.966;2023-01-30T03:13:04;100448.66;;;0.21;100.00
70133;BME280;57495;49.922;7.966;2023-01-30T03:15:12;100449.09;;;0.31;100.00
70133;BME280;57495;49.922;7.966;2023-01-30T03:17:18;100446.69;;;0.26;100.00
70133;BME280;57495;49.922;7.966;2023-01-30T03:19:22;100448.38;;;0.27;100.00
70133;BME280;57495;49.922;7.966;2023-01-30T03:21:23;100431.63;;;0.30;100.00
70133;BME280;57495;49.922;7.966;2023-01-30T03:23:25;100436.91;;;0.30;100.00
70133;BME280;57495;49.922;7.966;2023-01-30T03:25:26;100432.25;;;0.35;100.00
70133;BME280;57495;49.922;7.966;2023-01-30T03:27:27;100420.97;;;0.33;100.00
70133;BME280;57495;49.922;7.966;2023-01-30T03:29:29;100416.69;;;0.30;100.00
70133;BME280;57495;49.922;7.966;2023-01-30T03:31:30;100407.75;;;0.34;100.00
70133;BME280;57495;49.922;7.966;2023-01-30T03:33:32;100408.59;;;0.35;100.00
70133;BME280;57495;49.922;7.966;2023-01-30T03:35:35;100410.38;;;0.34;100.00
70133;BME280;57495;49.922;7.966;2023-01-30T03:37:36;100413.84;;;0.35;100.00
70133;BME280;57495;49.922;7.966;2023-01-30T03:39:38;100426.88;;;0.38;100.00
70133;BME280;57495;49.922;7.966;2023-01-30T03:41:40;100419.13;;;0.35;100.00
70133;BME280;57495;49.922;7.966;2023-01-30T03:43:41;100419.28;;;0.32;100.00
70133;BME280;57495;49.922;7.966;2023-01-30T03:45:43;100418.22;;;0.36;100.00
70133;BME280;57495;49.922;7.966;2023-01-30T03:47:44;100408.53;;;0.36;100.00
70133;BME280;57495;49.922;7.966;2023-01-30T03:49:45;100393.53;;;0.38;100.00
70133;BME280;57495;49.922;7.966;2023-01-30T03:51:48;100384.91;;;0.35;100.00
70133;BME280;57495;49.922;7.966;2023-01-30T03:53:50;100395.91;;;0.45;100.00
70133;BME280;57495;49.922;7.966;2023-01-30T03:55:51;100387.44;;;0.38;100.00
70133;BME280;57495;49.922;7.966;2023-01-30T03:57:54;100393.47;;;0.40;100.00
70133;BME280;57495;49.922;7.966;2023-01-30T03:59:55;100391.63;;;0.42;100.00
70133;BME280;57495;49.922;7.966;2023-01-30T04:01:57;100393.00;;;0.51;100.00
70133;BME280;57495;49.922;7.966;2023-01-30T04:03:58;100394.00;;;0.48;100.00
70133;BME280;57495;49.922;7.966;2023-01-30T04:06:00;100382.09;;;0.58;100.00
70133;BME280;57495;49.922;7.966;2023-01-30T04:08:02;100381.25;;;0.58;100.00
70133;BME280;57495;49.922;7.966;2023-01-30T04:10:05;100377.63;;;0.61;100.00
70133;BME280;57495;49.922;7.966;2023-01-30T04:12:06;100376.84;;;0.58;100.00
70133;BME280;57495;49.922;7.966;2023-01-30T04:14:08;100381.19;;;0.60;100.00
70133;BME280;57495;49.922;7.966;2023-01-30T04:16:14;100380.25;;;0.61;100.00
70133;BME280;57495;49.922;7.966;2023-01-30T04:18:16;100388.03;;;0.64;100.00
70133;BME280;57495;49.922;7.966;2023-01-30T04:20:17;100389.59;;;0.68;100.00
70133;BME280;57495;49.922;7.966;2023-01-30T04:22:19;100383.41;;;0.69;100.00
70133;BME280;57495;49.922;7.966;2023-01-30T04:24:22;100363.25;;;0.68;100.00
70133;BME280;57495;49.922;7.966;2023-01-30T04:26:24;100369.38;;;0.68;100.00
70133;BME280;57495;49.922;7.966;2023-01-30T04:28:25;100364.13;;;0.68;100.00
70133;BME280;57495;49.922;7.966;2023-01-30T04:30:27;100371.16;;;0.68;100.00
70133;BME280;57495;49.922;7.966;2023-01-30T04:32:28;100364.81;;;0.72;100.00
70133;BME280;57495;49.922;7.966;2023-01-30T04:34:29;100352.59;;;0.71;100.00
70133;BME280;57495;49.922;7.966;2023-01-30T04:36:31;100363.91;;;0.73;100.00
70133;BME280;57495;49.922;7.966;2023-01-30T04:38:33;100343.78;;;0.72;100.00
70133;BME280;57495;49.922;7.966;2023-01-30T04:40:36;100332.09;;;0.77;100.00
70133;BME280;57495;49.922;7.966;2023-01-30T04:42:37;100338.38;;;0.75;100.00
70133;BME280;57495;49.922;7.966;2023-01-30T04:44:39;100334.72;;;0.77;100.00
70133;BME280;57495;49.922;7.966;2023-01-30T04:46:40;100354.88;;;0.79;100.00
70133;BME280;57495;49.922;7.966;2023-01-30T04:48:41;100342.63;;;0.77;100.00
70133;BME280;57495;49.922;7.966;2023-01-30T04:50:44;100338.38;;;0.75;100.00
70133;BME280;57495;49.922;7.966;2023-01-30T04:52:47;100332.25;;;0.74;100.00
70133;BME280;57495;49.922;7.966;2023-01-30T04:54:49;100317.19;;;0.78;100.00
70133;BME280;57495;49.922;7.966;2023-01-30T04:56:51;100315.75;;;0.71;100.00
70133;BME280;57495;49.922;7.966;2023-01-30T04:58:53;100319.31;;;0.70;100.00
70133;BME280;57495;49.922;7.966;2023-01-30T05:00:54;100323.94;;;0.65;100.00
70133;BME280;57495;49.922;7.966;2023-01-30T05:02:56;100342.34;;;0.65;100.00
70133;BME280;57495;49.922;7.966;2023-01-30T05:04:57;100342.50;;;0.62;100.00
70133;BME280;57495;49.922;7.966;2023-01-30T05:06:59;100347.78;;;0.62;100.00
70133;BME280;57495;49.922;7.966;2023-01-30T05:09:00;100339.88;;;0.62;100.00
70133;BME280;57495;49.922;7.966;2023-01-30T05:11:02;100332.06;;;0.60;100.00
70133;BME280;57495;49.922;7.966;2023-01-30T05:13:04;100333.53;;;0.66;100.00
70133;BME280;57495;49.922;7.966;2023-01-30T05:15:07;100337.97;;;0.65;100.00
70133;BME280;57495;49.922;7.966;2023-01-30T05:17:08;100332.69;;;0.65;100.00
70133;BME280;57495;49.922;7.966;2023-01-30T05:19:11;100340.53;;;0.67;100.00
70133;BME280;57495;49.922;7.966;2023-01-30T05:21:14;100338.75;;;0.67;100.00
70133;BME280;57495;49.922;7.966;2023-01-30T05:23:16;100348.31;;;0.68;100.00
70133;BME280;57495;49.922;7.966;2023-01-30T05:25:18;100340.53;;;0.67;100.00
70133;BME280;57495;49.922;7.966;2023-01-30T05:27:19;100329.84;;;0.70;100.00
70133;BME280;57495;49.922;7.966;2023-01-30T05:29:22;100322.72;;;0.72;100.00
70133;BME280;57495;49.922;7.966;2023-01-30T05:31:24;100321.03;;;0.71;100.00
70133;BME280;57495;49.922;7.966;2023-01-30T05:33:25;100315.47;;;0.77;100.00
70133;BME280;57495;49.922;7.966;2023-01-30T05:35:26;100320.72;;;0.77;100.00
70133;BME280;57495;49.922;7.966;2023-01-30T05:37:28;100312.06;;;0.75;100.00
70133;BME280;57495;49.922;7.966;2023-01-30T05:39:29;100298.97;;;0.73;100.00
70133;BME280;57495;49.922;7.966;2023-01-30T05:41:30;100289.28;;;0.74;100.00
70133;BME280;57495;49.922;7.966;2023-01-30T05:43:33;100273.34;;;0.77;100.00
70133;BME280;57495;49.922;7.966;2023-01-30T05:45:36;100268.09;;;0.77;100.00
70133;BME280;57495;49.922;7.966;2023-01-30T05:47:37;100248.75;;;0.78;100.00
70133;BME280;57495;49.922;7.966;2023-01-30T05:49:39;100247.03;;;0.77;100.00
70133;BME280;57495;49.922;7.966;2023-01-30T05:51:40;100230.22;;;0.80;100.00
70133;BME280;57495;49.922;7.966;2023-01-30T05:53:41;100230.94;;;0.83;100.00
70133;BME280;57495;49.922;7.966;2023-01-30T05:55:43;100227.53;;;0.81;100.00
70133;BME280;57495;49.922;7.966;2023-01-30T05:57:44;100232.66;;;0.84;100.00
70133;BME280;57495;49.922;7.966;2023-01-30T05:59:45;100245.75;;;0.86;100.00
70133;BME280;57495;49.922;7.966;2023-01-30T06:01:48;100241.31;;;0.86;100.00
70133;BME280;57495;49.922;7.966;2023-01-30T06:03:50;100252.63;;;0.88;100.00
70133;BME280;57495;49.922;7.966;2023-01-30T06:05:51;100244.44;;;0.94;100.00
70133;BME280;57495;49.922;7.966;2023-01-30T06:07:53;100247.28;;;0.90;100.00
70133;BME280;57495;49.922;7.966;2023-01-30T06:09:54;100253.13;;;0.96;100.00
70133;BME280;57495;49.922;7.966;2023-01-30T06:11:56;100248.84;;;0.94;100.00
70133;BME280;57495;49.922;7.966;2023-01-30T06:13:57;100240.09;;;0.93;100.00
70133;BME280;57495;49.922;7.966;2023-01-30T06:15:58;100236.69;;;0.91;100.00
70133;BME280;57495;49.922;7.966;2023-01-30T06:18:01;100246.44;;;0.89;100.00
70133;BME280;57495;49.922;7.966;2023-01-30T06:20:03;100260.38;;;0.91;100.00
70133;BME280;57495;49.922;7.966;2023-01-30T06:22:04;100254.97;;;0.94;100.00
70133;BME280;57495;49.922;7.966;2023-01-30T06:24:06;100257.50;;;0.96;100.00
70133;BME280;57495;49.922;7.966;2023-01-30T06:26:08;100265.34;;;0.98;100.00
70133;BME280;57495;49.922;7.966;2023-01-30T06:28:10;100258.38;;;0.96;100.00
70133;BME280;57495;49.922;7.966;2023-01-30T06:30:12;100255.81;;;0.95;100.00
70133;BME280;57495;49.922;7.966;2023-01-30T06:32:13;100235.59;;;0.95;100.00
70133;BME280;57495;49.922;7.966;2023-01-30T06:34:16;100244.28;;;0.98;100.00
70133;BME280;57495;49.922;7.966;2023-01-30T06:36:17;100243.28;;;1.00;100.00
70133;BME280;57495;49.922;7.966;2023-01-30T06:38:19;100236.38;;;0.98;100.00
70133;BME280;57495;49.922;7.966;2023-01-30T06:40:20;100239.00;;;0.98;100.00
70133;BME280;57495;49.922;7.966;2023-01-30T06:42:21;100247.53;;;1.03;100.00
70133;BME280;57495;49.922;7.966;2023-01-30T06:44:23;100217.66;;;1.04;100.00
70133;BME280;57495;49.922;7.966;2023-01-30T06:46:24;100238.88;;;1.01;100.00
70133;BME280;57495;49.922;7.966;2023-01-30T06:48:25;100243.03;;;1.05;100.00
70133;BME280;57495;49.922;7.966;2023-01-30T06:50:29;100237.06;;;1.01;100.00
70133;BME280;57495;49.922;7.966;2023-01-30T06:52:31;100258.97;;;1.02;100.00
70133;BME280;57495;49.922;7.966;2023-01-30T06:54:32;100262.56;;;1.01;100.00
70133;BME280;57495;49.922;7.966;2023-01-30T06:56:33;100265.19;;;1.01;100.00
70133;BME280;57495;49.922;7.966;2023-01-30T06:58:35;100258.91;;;1.03;100.00
70133;BME280;57495;49.922;7.966;2023-01-30T07:00:37;100251.25;;;0.99;100.00
70133;BME280;57495;49.922;7.966;2023-01-30T07:02:40;100250.38;;;0.98;100.00
70133;BME280;57495;49.922;7.966;2023-01-30T07:04:41;100239.00;;;0.98;100.00
70133;BME280;57495;49.922;7.966;2023-01-30T07:06:44;100235.47;;;0.99;100.00
70133;BME280;57495;49.922;7.966;2023-01-30T07:08:46;100248.75;;;0.95;100.00
70133;BME280;57495;49.922;7.966;2023-01-30T07:10:47;100265.34;;;0.98;100.00
70133;BME280;57495;49.922;7.966;2023-01-30T07:12:48;100267.19;;;0.95;100.00
70133;BME280;57495;49.922;7.966;2023-01-30T07:14:50;100262.25;;;0.89;100.00
70133;BME280;57495;49.922;7.966;2023-01-30T07:16:51;100274.63;;;0.87;100.00
70133;BME280;57495;49.922;7.966;2023-01-30T07:18:52;100277.47;;;0.83;100.00
70133;BME280;57495;49.922;7.966;2023-01-30T07:20:56;100292.28;;;0.85;100.00
70133;BME280;57495;49.922;7.966;2023-01-30T07:22:59;100297.16;;;0.93;100.00
70133;BME280;57495;49.922;7.966;2023-01-30T07:25:00;100302.44;;;0.93;100.00
70133;BME280;57495;49.922;7.966;2023-01-30T07:27:02;100279.44;;;0.96;100.00
70133;BME280;57495;49.922;7.966;2023-01-30T07:29:03;100269.75;;;0.97;100.00
70133;BME280;57495;49.922;7.966;2023-01-30T07:31:04;100292.28;;;1.03;100.00
70133;BME280;57495;49.922;7.966;2023-01-30T07:33:06;100288.75;;;1.04;100.00
70133;BME280;57495;49.922;7.966;2023-01-30T07:35:08;100283.47;;;1.04;100.00
70133;BME280;57495;49.922;7.966;2023-01-30T07:37:09;100285.25;;;1.03;100.00
70133;BME280;57495;49.922;7.966;2023-01-30T07:39:12;100281.38;;;1.10;100.00
70133;BME280;57495;49.922;7.966;2023-01-30T07:41:13;100276.22;;;1.26;100.00
70133;BME280;57495;49.922;7.966;2023-01-30T07:43:15;100278.59;;;1.31;100.00
70133;BME280;57495;49.922;7.966;2023-01-30T07:45:16;100279.47;;;1.31;100.00
70133;BME280;57495;49.922;7.966;2023-01-30T07:47:18;100298.13;;;1.27;100.00
70133;BME280;57495;49.922;7.966;2023-01-30T07:49:20;100302.38;;;1.29;100.00
70133;BME280;57495;49.922;7.966;2023-01-30T07:51:21;100303.25;;;1.30;100.00
70133;BME280;57495;49.922;7.966;2023-01-30T07:53:22;100288.91;;;1.35;100.00
70133;BME280;57495;49.922;7.966;2023-01-30T07:55:25;100293.25;;;1.37;100.00
70133;BME280;57495;49.922;7.966;2023-01-30T07:57:27;100288.75;;;1.39;100.00
70133;BME280;57495;49.922;7.966;2023-01-30T07:59:29;100278.19;;;1.39;100.00
70133;BME280;57495;49.922;7.966;2023-01-30T08:01:31;100292.94;;;1.43;100.00
70133;BME280;57495;49.922;7.966;2023-01-30T08:03:32;100285.81;;;1.45;100.00
70133;BME280;57495;49.922;7.966;2023-01-30T08:05:33;100284.09;;;1.44;100.00
70133;BME280;57495;49.922;7.966;2023-01-30T08:07:35;100285.50;;;1.51;100.00
70133;BME280;57495;49.922;7.966;2023-01-30T08:09:36;100289.22;;;1.47;100.00
70133;BME280;57495;49.922;7.966;2023-01-30T08:11:39;100278.81;;;1.44;100.00
70133;BME280;57495;49.922;7.966;2023-01-30T08:13:40;100278.69;;;1.47;100.00
70133;BME280;57495;49.922;7.966;2023-01-30T08:15:42;100259.28;;;1.48;100.00
70133;BME280;57495;49.922;7.966;2023-01-30T08:17:43;100255.81;;;1.47;100.00
70133;BME280;57495;49.922;7.966;2023-01-30T08:19:44;100249.53;;;1.50;100.00
70133;BME280;57495;49.922;7.966;2023-01-30T08:21:46;100259.28;;;1.48;100.00
70133;BME280;57495;49.922;7.966;2023-01-30T08:23:47;100269.69;;;1.51;100.00
70133;BME280;57495;49.922;7.966;2023-01-30T08:25:49;100258.38;;;1.49;100.00
70133;BME280;57495;49.922;7.966;2023-01-30T08:27:51;100264.25;;;1.54;100.00
70133;BME280;57495;49.922;7.966;2023-01-30T08:29:53;100245.13;;;1.50;100.00
70133;BME280;57495;49.922;7.966;2023-01-30T08:31:56;100257.13;;;1.56;100.00
70133;BME280;57495;49.922;7.966;2023-01-30T08:33:57;100251.03;;;1.56;100.00
70133;BME280;57495;49.922;7.966;2023-01-30T08:35:58;100244.72;;;1.58;100.00
70133;BME280;57495;49.922;7.966;2023-01-30T08:38:00;100238.75;;;1.54;100.00
70133;BME280;57495;49.922;7.966;2023-01-30T08:40:03;100254.31;;;1.59;100.00
70133;BME280;57495;49.922;7.966;2023-01-30T08:42:04;100253.25;;;1.63;100.00
70133;BME280;57495;49.922;7.966;2023-01-30T08:44:07;100244.25;;;1.67;100.00
70133;BME280;57495;49.922;7.966;2023-01-30T08:46:08;100248.56;;;1.68;100.00
70133;BME280;57495;49.922;7.966;2023-01-30T08:48:10;100261.59;;;1.71;100.00
70133;BME280;57495;49.922;7.966;2023-01-30T08:50:11;100250.91;;;1.74;100.00
70133;BME280;57495;49.922;7.966;2023-01-30T08:52:12;100251.66;;;1.77;100.00
70133;BME280;57495;49.922;7.966;2023-01-30T08:54:14;100250.72;;;1.78;100.00
70133;BME280;57495;49.922;7.966;2023-01-30T08:56:15;100244.53;;;1.79;100.00
70133;BME280;57495;49.922;7.966;2023-01-30T08:58:17;100236.63;;;1.79;100.00
70133;BME280;57495;49.922;7.966;2023-01-30T09:00:20;100238.06;;;1.84;100.00
70133;BME280;57495;49.922;7.966;2023-01-30T09:02:22;100236.97;;;1.88;100.00
70133;BME280;57495;49.922;7.966;2023-01-30T09:04:23;100234.34;;;1.88;100.00
70133;BME280;57495;49.922;7.966;2023-01-30T09:06:25;100230.84;;;1.88;100.00
70133;BME280;57495;49.922;7.966;2023-01-30T09:08:27;100223.72;;;1.90;100.00
70133;BME280;57495;49.922;7.966;2023-01-30T09:10:28;100214.88;;;1.91;100.00
70133;BME280;57495;49.922;7.966;2023-01-30T09:12:30;100190.97;;;1.94;100.00
70133;BME280;57495;49.922;7.966;2023-01-30T09:14:31;100184.69;;;1.97;100.00
70133;BME280;57495;49.922;7.966;2023-01-30T09:16:34;100189.69;;;2.01;100.00
70133;BME280;57495;49.922;7.966;2023-01-30T09:18:37;100198.38;;;2.03;100.00
70133;BME280;57495;49.922;7.966;2023-01-30T09:20:38;100207.84;;;2.07;100.00
70133;BME280;57495;49.922;7.966;2023-01-30T09:22:40;100209.38;;;2.11;100.00
70133;BME280;57495;49.922;7.966;2023-01-30T09:24:41;100218.03;;;2.13;100.00
70133;BME280;57495;49.922;7.966;2023-01-30T09:26:43;100214.38;;;2.16;100.00
70133;BME280;57495;49.922;7.966;2023-01-30T09:28:44;100216.94;;;2.18;100.00
70133;BME280;57495;49.922;7.966;2023-01-30T09:30:46;100227.50;;;2.18;100.00
70133;BME280;57495;49.922;7.966;2023-01-30T09:32:48;100225.63;;;2.20;100.00
70133;BME280;57495;49.922;7.966;2023-01-30T09:34:50;100230.56;;;2.26;100.00
70133;BME280;57495;49.922;7.966;2023-01-30T09:36:51;100228.78;;;2.26;100.00
70133;BME280;57495;49.922;7.966;2023-01-30T09:38:53;100233.78;;;2.31;100.00
70133;BME280;57495;49.922;7.966;2023-01-30T09:41:18;100236.25;;;2.34;100.00
70133;BME280;57495;49.922;7.966;2023-01-30T09:43:37;100235.84;;;2.42;100.00
70133;BME280;57495;49.922;7.966;2023-01-30T09:45:59;100238.56;;;2.40;100.00
70133;BME280;57495;49.922;7.966;2023-01-30T09:48:13;100242.47;;;2.49;100.00
70133;BME280;57495;49.922;7.966;2023-01-30T09:50:26;100236.00;;;2.55;100.00
70133;BME280;57495;49.922;7.966;2023-01-30T09:52:40;100233.13;;;2.59;100.00
70133;BME280;57495;49.922;7.966;2023-01-30T09:54:46;100235.25;;;2.68;100.00
70133;BME280;57495;49.922;7.966;2023-01-30T09:56:52;100236.47;;;2.77;100.00
70133;BME280;57495;49.922;7.966;2023-01-30T09:58:58;100241.00;;;2.75;100.00
70133;BME280;57495;49.922;7.966;2023-01-30T10:01:05;100231.88;;;2.81;100.00
70133;BME280;57495;49.922;7.966;2023-01-30T10:03:14;100226.91;;;2.90;100.00
70133;BME280;57495;49.922;7.966;2023-01-30T10:05:18;100232.31;;;3.03;100.00
70133;BME280;57495;49.922;7.966;2023-01-30T10:07:23;100231.78;;;3.13;100.00
70133;BME280;57495;49.922;7.966;2023-01-30T10:09:38;100231.25;;;3.22;100.00
70133;BME280;57495;49.922;7.966;2023-01-30T10:11:52;100222.03;;;3.29;100.00
70133;BME280;57495;49.922;7.966;2023-01-30T10:14:12;100224.78;;;3.42;99.70
70133;BME280;57495;49.922;7.966;2023-01-30T10:16:19;100214.78;;;3.47;99.08
70133;BME280;57495;49.922;7.966;2023-01-30T10:18:38;100218.59;;;3.57;98.66
70133;BME280;57495;49.922;7.966;2023-01-30T10:20:51;100225.38;;;3.61;99.03
70133;BME280;57495;49.922;7.966;2023-01-30T10:23:01;100220.47;;;3.70;98.77
70133;BME280;57495;49.922;7.966;2023-01-30T10:25:15;100206.09;;;3.74;98.78
70133;BME280;57495;49.922;7.966;2023-01-30T10:27:21;100209.91;;;3.84;98.07
70133;BME280;57495;49.922;7.966;2023-01-30T10:29:27;100212.84;;;4.35;97.13
70133;BME280;57495;49.922;7.966;2023-01-30T10:31:34;100210.56;;;5.11;94.00
70133;BME280;57495;49.922;7.966;2023-01-30T10:33:42;100217.16;;;5.31;91.75
70133;BME280;57495;49.922;7.966;2023-01-30T10:35:49;100206.19;;;5.50;89.80
70133;BME280;57495;49.922;7.966;2023-01-30T10:37:57;100194.38;;;5.92;88.81
70133;BME280;57495;49.922;7.966;2023-01-30T10:40:04;100189.63;;;5.59;90.10
70133;BME280;57495;49.922;7.966;2023-01-30T10:42:14;100187.81;;;5.34;91.04
70133;BME280;57495;49.922;7.966;2023-01-30T10:44:20;100200.41;;;5.30;90.29
70133;BME280;57495;49.922;7.966;2023-01-30T10:46:32;100193.22;;;5.45;89.27
70133;BME280;57495;49.922;7.966;2023-01-30T10:48:50;100186.63;;;5.64;89.94
70133;BME280;57495;49.922;7.966;2023-01-30T10:50:55;100188.75;;;5.71;89.24